LGALLBBG

Guest
Details From LGAL - Alexandroupolis Dimokritos
To LBBG - Burgas
Flight Number -
Tags generated
Created
Modified
Stats Distance 125 nm / 232 km
Max Altitude 7,000 ft / 2,134 m
Waypoints 3
Social Downloads 0
Likes 0
Share VATSIM

Download

Looking for another format? Having issues loading an existing format? Contact us
Advertisement - Login to hide

Notes

Basic altitude profile: - Ascent Rate: 2500ft/min - Ascent Speed: 250kts - Cruise Altitude: 35000ft - Cruise Speed: 420kts - Descent Rate: 1500ft/min - Descent Speed: 250kts Options: - Use NATs: yes - Use PACOTS: yes - Use low airways: yes - Use high airways: yes

Route

LGAL VADEN LBBG

ID Type Via Altitude Latitude Longitude Leg Dist Tot Dist Heading (true) Name
O LGAL APT - 0 ft / 0 m 40.85587˚ 25.95626˚ - 0 nm - Alexandroupolis Dimokritos
VADEN FIX - 7,000 ft / 2,134 m 42.06556˚ 27.21611˚ 92 nm 92 nm 38° / 38° -
O LBBG APT - 0 ft / 0 m 42.57013˚ 27.51524˚ 33 nm 125 nm 24° / 24° Burgas

Altitude Profile

Advertisement - Login to hide

LGAL

Details ICAO LGAL (AXD)
Name Alexandroupolis Dimokritos
Region Greece
Timezone Europe/Athens (UTC+2.0)
Stats Elevation 24 ft / 7 m (AMSL)
Location 40.855869° 25.956264°
Runways 1
Magnetic Variation 5.062° E

METAR

LGAL 120820Z 23007KT CAVOK 14/09 Q1021

Decode

TAF

Not found

Departure Runways

ID Width Length Bearing (true) Bearing (mag) Surface Threshold Offset Overrun Length
07 148 ft / 45 m 8,403 ft / 2,561 m 72.93° 67.87° Asphalt 0 ft / 0 m 200 ft / 61 m
25 148 ft / 45 m 8,403 ft / 2,561 m 252.95° 247.89° Asphalt 0 ft / 0 m 200 ft / 61 m

LBBG

Details ICAO LBBG (BOJ)
Name Burgas
Region Bulgaria
Timezone Europe/Sofia (UTC+2.0)
Stats Elevation 135 ft / 41 m (AMSL)
Location 42.570130° 27.515240°
Runways 1
Magnetic Variation 5.502° E

METAR

LBBG 120830Z 27016KT CAVOK 10/03 Q1019 NOSIG

Decode

TAF

TAF TAF LBBG 120500Z 1206/1306 26010KT CAVOK

Decode

Destination Runways

ID Width Length Bearing (true) Bearing (mag) Surface Threshold Offset Overrun Length
04 148 ft / 45 m 10,502 ft / 3,201 m 44.28° 38.78° Concrete 0 ft / 0 m 190 ft / 58 m
22 148 ft / 45 m 10,502 ft / 3,201 m 224.29° 218.79° Concrete 0 ft / 0 m 190 ft / 58 m

Approach Navaids

Runway Type Ident Frequency Range Bearing (true) Bearing (mag) Slope Elevation
22 Localiser IBG 110.30 MHz 18 nm / 33 km 224.26° 218.76° - 135 ft / 41 m (AMSL)
22 Glidescope IBG 110.30 MHz 10 nm / 19 km 224.28° 218.78° 3.00° 135 ft / 41 m (AMSL)